createdAt,value
2023-03-31T00:02:07.479Z,11.50
2023-03-31T00:04:36.797Z,11.40
2023-03-31T00:07:06.406Z,11.50
2023-03-31T00:09:35.716Z,11.40
2023-03-31T00:12:06.399Z,11.40
2023-03-31T00:14:35.435Z,11.40
2023-03-31T00:17:04.651Z,11.40
2023-03-31T00:19:34.331Z,11.40
2023-03-31T00:22:05.487Z,11.40
2023-03-31T00:24:34.991Z,11.40
2023-03-31T00:27:06.618Z,11.40
2023-03-31T00:29:36.006Z,11.40
2023-03-31T00:32:05.402Z,11.40
2023-03-31T00:34:34.821Z,11.40
2023-03-31T00:37:05.567Z,11.40
2023-03-31T00:39:35.456Z,11.40
2023-03-31T00:42:06.078Z,11.40
2023-03-31T00:44:35.085Z,11.40
2023-03-31T00:47:11.803Z,11.40
2023-03-31T00:49:46.494Z,11.50
2023-03-31T00:52:18.956Z,11.50
2023-03-31T00:54:55.620Z,11.50
2023-03-31T00:57:28.608Z,11.50
2023-03-31T01:00:03.984Z,11.50
2023-03-31T01:02:33.152Z,11.50
2023-03-31T01:05:03.195Z,11.60
2023-03-31T01:07:38.100Z,11.50
2023-03-31T01:10:08.920Z,11.50
2023-03-31T01:12:42.719Z,11.50
2023-03-31T01:15:12.457Z,11.50
2023-03-31T01:17:45.028Z,11.40
2023-03-31T01:20:22.410Z,11.40
2023-03-31T01:23:23.776Z,11.30
2023-03-31T01:26:29.554Z,11.30
2023-03-31T01:29:08.710Z,11.30
2023-03-31T01:32:34.354Z,11.30
2023-03-31T01:35:21.215Z,11.30
2023-03-31T01:38:21.211Z,11.20
2023-03-31T01:41:18.725Z,11.20
2023-03-31T01:43:52.026Z,11.20
2023-03-31T01:46:29.768Z,11.20
2023-03-31T01:49:09.288Z,11.20
2023-03-31T01:51:49.676Z,11.30
2023-03-31T01:54:23.567Z,11.20
2023-03-31T01:56:59.649Z,11.20
2023-03-31T01:59:32.195Z,11.20
2023-03-31T02:02:07.490Z,11.20
2023-03-31T02:04:40.218Z,11.20
2023-03-31T02:07:14.831Z,11.20
2023-03-31T02:09:48.105Z,11.20
2023-03-31T02:12:21.338Z,11.20
2023-03-31T02:14:53.974Z,11.10
2023-03-31T02:17:30.459Z,11.10
2023-03-31T02:20:05.817Z,11.20
2023-03-31T02:22:39.837Z,11.20
2023-03-31T02:25:14.225Z,11.20
2023-03-31T02:27:48.804Z,11.20
2023-03-31T02:30:18.099Z,11.30
2023-03-31T02:32:47.855Z,11.30
2023-03-31T02:35:20.303Z,11.30
2023-03-31T02:37:50.738Z,11.30
2023-03-31T02:40:22.466Z,11.30
2023-03-31T02:42:53.058Z,11.30
2023-03-31T02:45:44.297Z,11.30
2023-03-31T02:48:17.768Z,11.30
2023-03-31T02:51:10.755Z,11.30
2023-03-31T02:53:59.099Z,11.30
2023-03-31T02:56:48.695Z,11.30
2023-03-31T02:59:31.425Z,11.30
2023-03-31T03:02:14.742Z,11.30
2023-03-31T03:05:09.954Z,11.30
2023-03-31T03:07:50.518Z,11.40
2023-03-31T03:10:29.259Z,11.40
2023-03-31T03:13:07.623Z,11.50
2023-03-31T03:15:44.873Z,11.50
2023-03-31T03:18:14.430Z,11.50
2023-03-31T03:20:48.603Z,11.60
2023-03-31T03:23:18.172Z,11.60
2023-03-31T03:25:48.085Z,11.60
2023-03-31T03:28:17.567Z,11.60
2023-03-31T03:30:48.007Z,11.50
2023-03-31T03:33:18.087Z,11.50
2023-03-31T03:35:47.391Z,11.50
2023-03-31T03:38:16.410Z,11.50
2023-03-31T03:40:46.304Z,11.50
2023-03-31T03:43:16.426Z,11.50
2023-03-31T03:45:50.520Z,11.60
2023-03-31T03:48:20.089Z,11.60
2023-03-31T03:50:49.280Z,11.60
2023-03-31T03:53:18.306Z,11.60
2023-03-31T03:55:49.053Z,11.60
2023-03-31T03:58:20.289Z,11.60
2023-03-31T04:00:50.514Z,11.60
2023-03-31T04:03:19.864Z,11.60
2023-03-31T04:05:50.562Z,11.60
2023-03-31T04:08:20.322Z,11.60
2023-03-31T04:10:50.377Z,11.60
2023-03-31T04:13:20.454Z,11.60
2023-03-31T04:15:50.900Z,11.60
2023-03-31T04:18:23.300Z,11.70
2023-03-31T04:21:04.125Z,11.70
2023-03-31T04:23:45.493Z,11.70
2023-03-31T04:26:15.080Z,11.70
2023-03-31T04:28:46.885Z,11.80
2023-03-31T04:31:25.394Z,11.80
2023-03-31T04:33:55.232Z,11.90
2023-03-31T04:36:24.293Z,11.90
2023-03-31T04:38:55.058Z,11.90
2023-03-31T04:41:25.278Z,12.00
2023-03-31T04:43:54.425Z,12.00
2023-03-31T04:46:25.651Z,12.10
2023-03-31T04:48:54.467Z,12.10
2023-03-31T04:51:23.364Z,12.10
2023-03-31T04:53:52.432Z,12.10
2023-03-31T04:56:22.842Z,12.10
2023-03-31T04:58:51.885Z,12.20
2023-03-31T05:01:20.967Z,12.20
2023-03-31T05:03:51.416Z,12.20
2023-03-31T05:06:20.817Z,12.20
2023-03-31T05:08:49.863Z,12.20
2023-03-31T05:11:18.896Z,12.20
2023-03-31T05:13:48.043Z,12.20
2023-03-31T05:16:17.577Z,12.20
2023-03-31T05:18:47.748Z,12.20
2023-03-31T05:21:20.758Z,12.10
2023-03-31T05:23:51.157Z,12.10
2023-03-31T05:26:22.414Z,12.00
2023-03-31T05:28:51.362Z,12.00
2023-03-31T05:31:20.548Z,12.00
2023-03-31T05:33:49.840Z,12.00
2023-03-31T05:36:20.414Z,12.00
2023-03-31T05:38:49.642Z,12.10
2023-03-31T05:41:18.710Z,12.10
2023-03-31T05:43:50.605Z,12.10
2023-03-31T05:46:19.686Z,12.20
2023-03-31T05:48:48.751Z,12.10
2023-03-31T05:51:19.176Z,12.20
2023-03-31T05:53:48.300Z,12.20
2023-03-31T05:56:17.660Z,12.20
2023-03-31T05:58:46.737Z,12.20
2023-03-31T06:01:19.972Z,12.20
2023-03-31T06:03:49.189Z,12.30
2023-03-31T06:06:21.419Z,12.30
2023-03-31T06:08:51.460Z,12.30
2023-03-31T06:11:22.007Z,12.30
2023-03-31T06:13:51.497Z,12.30
2023-03-31T06:16:21.398Z,12.30
2023-03-31T06:18:51.427Z,12.30
2023-03-31T06:21:21.966Z,12.30
2023-03-31T06:23:55.156Z,12.20
2023-03-31T06:26:24.428Z,12.30
2023-03-31T06:28:53.563Z,12.20
2023-03-31T06:31:24.527Z,12.20
2023-03-31T06:33:54.380Z,12.20
2023-03-31T06:36:24.932Z,12.20
2023-03-31T06:38:54.915Z,12.20
2023-03-31T06:41:24.777Z,12.20
2023-03-31T06:43:53.811Z,12.20
2023-03-31T06:46:23.355Z,12.20
2023-03-31T06:48:52.343Z,12.20
2023-03-31T06:51:21.844Z,12.30
2023-03-31T06:53:52.457Z,12.30
2023-03-31T06:56:22.030Z,12.20
2023-03-31T06:58:51.062Z,12.20
2023-03-31T07:01:20.313Z,12.20
2023-03-31T07:03:49.607Z,12.20
2023-03-31T07:06:18.717Z,12.20
2023-03-31T07:08:48.294Z,12.20
2023-03-31T07:11:21.107Z,12.20
2023-03-31T07:13:50.280Z,12.30
2023-03-31T07:16:20.919Z,12.30
2023-03-31T07:18:50.593Z,12.20
2023-03-31T07:21:19.684Z,12.20
2023-03-31T07:23:48.688Z,12.30
2023-03-31T07:26:21.495Z,12.20
2023-03-31T07:28:51.954Z,12.20
2023-03-31T07:31:21.415Z,12.20
2023-03-31T07:33:50.632Z,12.10
2023-03-31T07:36:20.101Z,12.10
2023-03-31T07:38:49.834Z,12.10
2023-03-31T07:41:21.881Z,12.00
2023-03-31T07:43:51.744Z,11.90
2023-03-31T07:46:24.765Z,12.00
2023-03-31T07:48:55.315Z,11.90
2023-03-31T07:51:26.352Z,11.90
2023-03-31T07:53:57.779Z,11.90
2023-03-31T07:56:28.326Z,11.80
2023-03-31T07:58:57.872Z,11.80
2023-03-31T08:01:29.490Z,11.80
2023-03-31T08:03:59.282Z,11.80
2023-03-31T08:06:29.231Z,11.80
2023-03-31T08:08:59.099Z,11.90
2023-03-31T08:11:29.647Z,11.90
2023-03-31T08:13:58.748Z,11.90
2023-03-31T08:16:28.332Z,11.90
2023-03-31T08:18:57.397Z,12.00
2023-03-31T08:21:26.744Z,12.00
2023-03-31T08:23:56.337Z,12.00
2023-03-31T08:26:26.133Z,12.00
2023-03-31T08:28:59.241Z,12.00
2023-03-31T08:31:29.377Z,11.90
2023-03-31T08:33:58.684Z,12.00
2023-03-31T08:36:28.401Z,11.90
2023-03-31T08:38:57.918Z,11.90
2023-03-31T08:41:37.403Z,11.80
2023-03-31T08:44:14.955Z,11.80
2023-03-31T08:46:44.647Z,11.80
2023-03-31T08:49:17.706Z,11.80
2023-03-31T08:51:51.352Z,11.70
2023-03-31T08:54:27.929Z,11.70
2023-03-31T08:56:57.054Z,11.70
2023-03-31T08:59:31.559Z,11.80
2023-03-31T09:02:07.246Z,11.80
2023-03-31T09:05:00.264Z,11.80
2023-03-31T09:07:41.148Z,11.80
2023-03-31T09:10:35.722Z,11.80
2023-03-31T09:13:15.633Z,11.80
2023-03-31T09:15:49.915Z,11.80
2023-03-31T09:18:26.976Z,11.80
2023-03-31T09:21:02.092Z,11.80
2023-03-31T09:23:35.173Z,12.00
2023-03-31T09:26:06.461Z,12.00
2023-03-31T09:28:39.046Z,12.00
2023-03-31T09:31:16.079Z,12.10
2023-03-31T09:33:47.983Z,12.10
2023-03-31T09:36:19.506Z,12.20
2023-03-31T09:38:49.160Z,12.20
2023-03-31T09:41:20.224Z,12.20
2023-03-31T09:43:51.451Z,12.20
2023-03-31T09:46:29.457Z,12.10
2023-03-31T09:49:04.395Z,12.20
2023-03-31T09:51:37.516Z,12.20
2023-03-31T09:54:15.812Z,12.20
2023-03-31T09:56:50.627Z,12.20
2023-03-31T09:59:21.774Z,12.20
2023-03-31T10:01:55.196Z,12.20
2023-03-31T10:04:28.354Z,12.20
2023-03-31T10:06:58.430Z,12.30
2023-03-31T10:09:29.210Z,12.30
2023-03-31T10:12:03.631Z,12.30
2023-03-31T10:14:41.590Z,12.30
2023-03-31T10:17:16.269Z,12.30
2023-03-31T10:19:50.724Z,12.30
2023-03-31T10:22:31.043Z,12.20
2023-03-31T10:25:12.230Z,12.30
2023-03-31T10:27:43.108Z,12.30
2023-03-31T10:30:14.172Z,12.40
2023-03-31T10:32:46.737Z,12.40
2023-03-31T10:35:25.539Z,12.40
2023-03-31T10:37:58.744Z,12.40
2023-03-31T10:40:29.809Z,12.40
2023-03-31T10:43:05.463Z,12.40
2023-03-31T10:45:39.644Z,12.40
2023-03-31T10:48:19.524Z,12.40
2023-03-31T10:50:49.976Z,12.40
2023-03-31T10:53:19.713Z,12.40
2023-03-31T10:56:03.009Z,12.40
2023-03-31T10:58:52.095Z,12.40
2023-03-31T11:01:41.200Z,12.40
2023-03-31T11:04:33.060Z,12.50
2023-03-31T11:07:11.192Z,12.50
2023-03-31T11:09:51.916Z,12.40
2023-03-31T11:12:28.982Z,12.40
2023-03-31T11:15:12.159Z,12.40
2023-03-31T11:17:59.497Z,12.40
2023-03-31T11:20:37.907Z,12.40
2023-03-31T11:23:16.785Z,12.30
2023-03-31T11:25:53.807Z,12.30
2023-03-31T11:28:50.634Z,12.40
2023-03-31T11:31:30.298Z,12.40
2023-03-31T11:34:26.738Z,12.40
2023-03-31T11:37:19.647Z,12.40
2023-03-31T11:40:08.116Z,12.30
2023-03-31T11:42:40.964Z,12.30
2023-03-31T11:45:17.609Z,12.30
2023-03-31T11:47:50.671Z,12.30
2023-03-31T11:50:22.996Z,12.30
2023-03-31T11:52:59.686Z,12.30
2023-03-31T11:55:31.819Z,12.40
2023-03-31T11:58:05.760Z,12.50
2023-03-31T12:00:39.492Z,12.50
2023-03-31T12:03:14.611Z,12.50
2023-03-31T12:05:47.321Z,12.50
2023-03-31T12:08:26.532Z,12.40
2023-03-31T12:11:01.699Z,12.40
2023-03-31T12:13:40.246Z,12.40
2023-03-31T12:16:15.762Z,12.30
2023-03-31T12:18:54.480Z,12.30
2023-03-31T12:21:25.152Z,12.40
2023-03-31T12:23:56.404Z,12.40
2023-03-31T12:26:32.413Z,12.50
2023-03-31T12:29:06.864Z,12.50
2023-03-31T12:31:38.743Z,12.60
2023-03-31T12:34:13.975Z,12.60
2023-03-31T12:36:57.568Z,12.70
2023-03-31T12:39:37.873Z,12.80
2023-03-31T12:42:34.245Z,12.90
2023-03-31T12:45:15.067Z,13.00
2023-03-31T12:48:12.919Z,13.10
2023-03-31T12:50:54.811Z,13.20
2023-03-31T12:53:32.564Z,13.20
2023-03-31T12:56:03.268Z,13.20
2023-03-31T12:58:44.266Z,13.20
2023-03-31T13:01:16.253Z,13.10
2023-03-31T13:04:09.773Z,13.20
2023-03-31T13:07:03.223Z,13.20
2023-03-31T13:09:45.445Z,13.30
2023-03-31T13:12:21.960Z,13.30
2023-03-31T13:14:54.442Z,13.30
2023-03-31T13:17:27.250Z,13.40
2023-03-31T13:19:57.718Z,13.40
2023-03-31T13:22:36.273Z,13.40
2023-03-31T13:25:41.898Z,13.30
2023-03-31T13:28:43.117Z,13.30
2023-03-31T13:31:13.155Z,13.40
2023-03-31T13:33:45.804Z,13.50
2023-03-31T13:36:56.019Z,13.50
2023-03-31T13:39:59.612Z,13.40
2023-03-31T13:43:07.535Z,13.50
2023-03-31T13:46:10.475Z,13.50
2023-03-31T13:48:52.212Z,13.60
2023-03-31T13:51:30.494Z,13.60
2023-03-31T13:54:13.934Z,13.50
2023-03-31T13:57:07.061Z,13.50
2023-03-31T13:59:55.903Z,13.50
2023-03-31T14:02:49.187Z,13.40
2023-03-31T14:05:27.364Z,13.40
2023-03-31T14:07:59.206Z,13.50
2023-03-31T14:10:33.475Z,13.40
2023-03-31T14:13:27.008Z,13.40
2023-03-31T14:15:58.639Z,13.40
2023-03-31T14:18:33.602Z,13.50
2023-03-31T14:21:17.938Z,13.50
2023-03-31T14:23:57.894Z,13.40
2023-03-31T14:26:46.842Z,13.40
2023-03-31T14:29:22.054Z,13.30
2023-03-31T14:31:57.117Z,13.30
2023-03-31T14:34:46.312Z,13.30
2023-03-31T14:37:17.904Z,13.40
2023-03-31T14:39:49.881Z,13.40
2023-03-31T14:42:20.781Z,13.50
2023-03-31T14:44:50.249Z,13.50
2023-03-31T14:47:23.747Z,13.50
2023-03-31T14:50:03.603Z,13.50
2023-03-31T14:52:35.787Z,13.50
2023-03-31T14:55:05.231Z,13.60
2023-03-31T14:57:37.396Z,13.60
2023-03-31T15:00:09.758Z,13.70
2023-03-31T15:02:42.439Z,13.70
2023-03-31T15:05:23.739Z,13.80
2023-03-31T15:07:52.966Z,13.90
2023-03-31T15:10:23.154Z,14.00
2023-03-31T15:12:52.351Z,14.10
2023-03-31T15:15:22.355Z,14.10
2023-03-31T15:17:53.051Z,14.20
2023-03-31T15:20:35.211Z,14.10
2023-03-31T15:23:07.864Z,14.10
2023-03-31T15:25:42.818Z,14.10
2023-03-31T15:28:16.127Z,14.00
2023-03-31T15:33:42.468Z,14.10
2023-03-31T15:36:16.030Z,14.10
2023-03-31T15:38:45.471Z,14.20
2023-03-31T15:41:16.868Z,14.10
2023-03-31T15:43:47.401Z,14.10
2023-03-31T15:46:21.318Z,14.10
2023-03-31T15:48:53.064Z,14.00
2023-03-31T15:51:39.510Z,14.00
2023-03-31T15:54:31.167Z,14.00
2023-03-31T15:57:01.287Z,14.00
2023-03-31T15:59:41.835Z,14.00
2023-03-31T16:02:19.173Z,14.00
2023-03-31T16:04:51.302Z,14.00
2023-03-31T16:07:24.960Z,13.90
2023-03-31T16:09:56.988Z,13.80
2023-03-31T16:12:29.721Z,13.90
2023-03-31T16:15:01.543Z,13.80
2023-03-31T16:17:33.572Z,13.70
2023-03-31T16:20:08.933Z,13.70
2023-03-31T16:22:41.966Z,13.70
2023-03-31T16:25:13.487Z,13.70
2023-03-31T16:27:45.093Z,13.70
2023-03-31T16:30:17.360Z,13.80
2023-03-31T16:33:04.647Z,13.80
2023-03-31T16:35:37.012Z,13.80
2023-03-31T16:38:08.826Z,13.80
2023-03-31T16:40:39.494Z,13.80
2023-03-31T16:43:13.726Z,13.90
2023-03-31T16:45:45.672Z,13.90
2023-03-31T16:48:16.706Z,13.90
2023-03-31T16:50:47.670Z,13.90
2023-03-31T16:53:19.982Z,13.90
2023-03-31T16:55:49.529Z,14.00
2023-03-31T16:58:19.184Z,14.00
2023-03-31T17:00:49.386Z,14.00
2023-03-31T17:03:18.956Z,14.00
2023-03-31T17:05:53.272Z,14.00
2023-03-31T17:08:25.814Z,14.00
2023-03-31T17:10:58.170Z,14.00
2023-03-31T17:13:27.593Z,14.00
2023-03-31T17:18:45.929Z,14.00
2023-03-31T17:21:18.380Z,14.00
2023-03-31T17:23:49.806Z,14.00
2023-03-31T17:26:19.207Z,13.90
2023-03-31T17:28:48.258Z,13.90
2023-03-31T17:31:19.016Z,13.90
2023-03-31T17:33:48.792Z,13.80
2023-03-31T17:36:18.422Z,13.80
2023-03-31T17:38:49.394Z,13.80
2023-03-31T17:41:18.764Z,13.80
2023-03-31T17:43:48.907Z,13.80
2023-03-31T17:46:19.058Z,13.80
2023-03-31T17:48:48.562Z,13.70
2023-03-31T17:51:19.407Z,13.70
2023-03-31T17:53:49.881Z,13.70
2023-03-31T17:56:19.362Z,13.70
2023-03-31T17:58:48.560Z,13.60
2023-03-31T18:01:17.685Z,13.60
2023-03-31T18:03:47.854Z,13.50
2023-03-31T18:06:17.830Z,13.50
2023-03-31T18:08:47.269Z,13.50
2023-03-31T18:11:18.132Z,13.50
2023-03-31T18:13:47.277Z,13.50
2023-03-31T18:16:17.149Z,13.50
2023-03-31T18:18:48.818Z,13.40
2023-03-31T18:21:18.347Z,13.40
2023-03-31T18:23:52.588Z,13.40
2023-03-31T18:26:24.286Z,13.30
2023-03-31T18:28:54.025Z,13.30
2023-03-31T18:31:24.805Z,13.30
2023-03-31T18:33:54.796Z,13.30
2023-03-31T18:36:25.330Z,13.20
2023-03-31T18:38:54.964Z,13.30
2023-03-31T18:41:25.759Z,13.20
2023-03-31T18:43:55.350Z,13.30
2023-03-31T18:46:24.571Z,13.30
2023-03-31T18:48:53.822Z,13.20
2023-03-31T18:51:22.993Z,13.20
2023-03-31T18:53:52.098Z,13.20
2023-03-31T18:56:23.266Z,13.20
2023-03-31T18:58:54.008Z,13.10
2023-03-31T19:01:24.330Z,13.10
2023-03-31T19:03:53.526Z,13.00
2023-03-31T19:06:22.875Z,13.00
2023-03-31T19:08:52.083Z,13.00
2023-03-31T19:11:21.140Z,13.00
2023-03-31T19:13:50.552Z,12.90
2023-03-31T19:16:21.064Z,12.90
2023-03-31T19:18:50.166Z,12.80
2023-03-31T19:21:22.007Z,12.80
2023-03-31T19:23:51.056Z,12.80
2023-03-31T19:26:21.086Z,12.80
2023-03-31T19:28:50.197Z,12.80
2023-03-31T19:31:21.251Z,12.80
2023-03-31T19:33:50.529Z,12.80
2023-03-31T19:36:19.684Z,12.80
2023-03-31T19:38:48.785Z,12.80
2023-03-31T19:41:18.536Z,12.80
2023-03-31T19:43:48.024Z,12.80
2023-03-31T19:46:17.216Z,12.80
2023-03-31T19:48:47.728Z,12.80
2023-03-31T19:51:17.231Z,12.80
2023-03-31T19:53:46.798Z,12.80
2023-03-31T19:56:18.446Z,12.80
2023-03-31T19:58:48.332Z,12.80
2023-03-31T20:01:20.969Z,12.80
2023-03-31T20:03:53.682Z,12.80
2023-03-31T20:06:24.912Z,12.80
2023-03-31T20:08:55.327Z,12.80
2023-03-31T20:11:26.278Z,12.80
2023-03-31T20:13:56.736Z,12.80
2023-03-31T20:16:28.378Z,12.70
2023-03-31T20:19:01.361Z,12.60
2023-03-31T20:21:33.323Z,12.70
2023-03-31T20:24:02.919Z,12.70
2023-03-31T20:26:34.283Z,12.70
2023-03-31T20:29:03.709Z,12.70
2023-03-31T20:31:36.699Z,12.70
2023-03-31T20:34:12.652Z,12.70
2023-03-31T20:36:42.793Z,12.60
2023-03-31T20:39:13.896Z,12.60
2023-03-31T20:41:43.434Z,12.60
2023-03-31T20:44:15.126Z,12.60
2023-03-31T20:46:45.441Z,12.60
2023-03-31T20:49:16.036Z,12.60
2023-03-31T20:51:45.903Z,12.60
2023-03-31T20:54:15.102Z,12.60
2023-03-31T20:56:44.717Z,12.60
2023-03-31T20:59:15.111Z,12.60
2023-03-31T21:01:47.226Z,12.50
2023-03-31T21:04:20.938Z,12.50
2023-03-31T21:06:49.994Z,12.50
2023-03-31T21:09:19.017Z,12.50
2023-03-31T21:11:48.040Z,12.60
2023-03-31T21:14:18.454Z,12.50
2023-03-31T21:16:47.698Z,12.50
2023-03-31T21:19:21.131Z,12.50
2023-03-31T21:21:50.207Z,12.50
2023-03-31T21:24:19.465Z,12.50
2023-03-31T21:26:48.472Z,12.50
2023-03-31T21:29:17.825Z,12.50
2023-03-31T21:31:47.328Z,12.50
2023-03-31T21:34:16.826Z,12.50
2023-03-31T21:36:47.316Z,12.50
2023-03-31T21:39:16.562Z,12.40
2023-03-31T21:41:45.575Z,12.50
2023-03-31T21:44:15.066Z,12.50
2023-03-31T21:46:48.087Z,12.40
2023-03-31T21:49:18.501Z,12.40
2023-03-31T21:51:49.129Z,12.40
2023-03-31T21:54:18.220Z,12.40
2023-03-31T21:56:47.260Z,12.40
2023-03-31T21:59:16.573Z,12.40
2023-03-31T22:01:45.696Z,12.40
2023-03-31T22:04:14.762Z,12.40
2023-03-31T22:06:44.996Z,12.40
2023-03-31T22:09:15.441Z,12.30
2023-03-31T22:11:44.469Z,12.30
2023-03-31T22:14:13.592Z,12.40
2023-03-31T22:16:42.824Z,12.30
2023-03-31T22:19:14.091Z,12.30
2023-03-31T22:21:43.945Z,12.30
2023-03-31T22:24:14.989Z,12.30
2023-03-31T22:26:44.104Z,12.30
2023-03-31T22:29:15.946Z,12.30
2023-03-31T22:31:44.992Z,12.30
2023-03-31T22:34:15.935Z,12.30
2023-03-31T22:36:44.980Z,12.30
2023-03-31T22:39:16.455Z,12.30
2023-03-31T22:41:46.505Z,12.30
2023-03-31T22:44:15.688Z,12.30
2023-03-31T22:46:46.388Z,12.30
2023-03-31T22:49:15.942Z,12.30
2023-03-31T22:51:45.302Z,12.30
2023-03-31T22:54:17.169Z,12.30
2023-03-31T22:56:46.354Z,12.30
2023-03-31T22:59:16.074Z,12.30
2023-03-31T23:01:52.648Z,12.20
2023-03-31T23:04:22.269Z,12.30
2023-03-31T23:06:51.444Z,12.30
2023-03-31T23:09:21.952Z,12.30
2023-03-31T23:11:51.461Z,12.30
2023-03-31T23:14:20.628Z,12.30
2023-03-31T23:16:49.739Z,12.30
2023-03-31T23:19:19.910Z,12.30
2023-03-31T23:21:49.584Z,12.30
2023-03-31T23:24:21.295Z,12.30
2023-03-31T23:26:51.690Z,12.30
2023-03-31T23:29:20.754Z,12.20
2023-03-31T23:31:49.862Z,12.20
2023-03-31T23:34:19.169Z,12.30
2023-03-31T23:36:48.280Z,12.30
2023-03-31T23:39:17.360Z,12.20
2023-03-31T23:41:46.645Z,12.20
2023-03-31T23:44:17.022Z,12.20
2023-03-31T23:46:46.056Z,12.20
2023-03-31T23:49:15.133Z,12.20
2023-03-31T23:51:44.148Z,12.30
2023-03-31T23:54:13.116Z,12.30
2023-03-31T23:56:42.148Z,12.20
2023-03-31T23:59:11.319Z,12.20
